sensor_id;sensor_type;location;lat;lon;timestamp;P1;durP1;ratioP1;P2;durP2;ratioP2
7737;SDS011;29398;45.328;5.558;2023-03-23T00:00:40;2.97;;;2.42;;
7737;SDS011;29398;45.328;5.558;2023-03-23T00:01:41;3.58;;;2.47;;
7737;SDS011;29398;45.328;5.558;2023-03-23T00:02:43;2.40;;;2.20;;
7737;SDS011;29398;45.328;5.558;2023-03-23T00:03:46;2.53;;;2.33;;
7737;SDS011;29398;45.328;5.558;2023-03-23T00:04:49;2.50;;;2.30;;
7737;SDS011;29398;45.328;5.558;2023-03-23T00:05:50;2.75;;;1.90;;
7737;SDS011;29398;45.328;5.558;2023-03-23T00:06:53;2.80;;;2.45;;
7737;SDS011;29398;45.328;5.558;2023-03-23T00:07:54;2.55;;;2.00;;
7737;SDS011;29398;45.328;5.558;2023-03-23T00:08:56;2.75;;;2.40;;
7737;SDS011;29398;45.328;5.558;2023-03-23T00:09:59;3.05;;;2.22;;
7737;SDS011;29398;45.328;5.558;2023-03-23T00:11:02;4.13;;;2.40;;
7737;SDS011;29398;45.328;5.558;2023-03-23T00:12:03;3.10;;;2.75;;
7737;SDS011;29398;45.328;5.558;2023-03-23T00:13:07;4.72;;;2.55;;
7737;SDS011;29398;45.328;5.558;2023-03-23T00:14:09;3.35;;;2.58;;
7737;SDS011;29398;45.328;5.558;2023-03-23T00:15:13;4.18;;;2.92;;
7737;SDS011;29398;45.328;5.558;2023-03-23T00:16:17;3.85;;;2.22;;
7737;SDS011;29398;45.328;5.558;2023-03-23T00:17:20;5.07;;;2.10;;
7737;SDS011;29398;45.328;5.558;2023-03-23T00:18:23;3.75;;;2.47;;
7737;SDS011;29398;45.328;5.558;2023-03-23T00:19:24;4.30;;;2.42;;
7737;SDS011;29398;45.328;5.558;2023-03-23T00:20:26;3.17;;;2.45;;
7737;SDS011;29398;45.328;5.558;2023-03-23T00:21:30;3.95;;;2.25;;
7737;SDS011;29398;45.328;5.558;2023-03-23T00:22:37;3.42;;;2.15;;
7737;SDS011;29398;45.328;5.558;2023-03-23T00:23:38;2.65;;;2.42;;
7737;SDS011;29398;45.328;5.558;2023-03-23T00:24:45;4.30;;;2.40;;
7737;SDS011;29398;45.328;5.558;2023-03-23T00:25:47;3.15;;;2.30;;
7737;SDS011;29398;45.328;5.558;2023-03-23T00:26:49;2.95;;;2.40;;
7737;SDS011;29398;45.328;5.558;2023-03-23T00:27:53;3.05;;;2.67;;
7737;SDS011;29398;45.328;5.558;2023-03-23T00:28:56;4.40;;;2.50;;
7737;SDS011;29398;45.328;5.558;2023-03-23T00:30:00;2.92;;;2.53;;
7737;SDS011;29398;45.328;5.558;2023-03-23T00:31:02;2.80;;;2.30;;
7737;SDS011;29398;45.328;5.558;2023-03-23T00:32:08;2.80;;;2.45;;
7737;SDS011;29398;45.328;5.558;2023-03-23T00:33:13;2.53;;;2.13;;
7737;SDS011;29398;45.328;5.558;2023-03-23T00:34:17;3.55;;;2.40;;
7737;SDS011;29398;45.328;5.558;2023-03-23T00:35:20;3.28;;;2.70;;
7737;SDS011;29398;45.328;5.558;2023-03-23T00:36:22;3.13;;;2.30;;
7737;SDS011;29398;45.328;5.558;2023-03-23T00:37:23;3.85;;;2.60;;
7737;SDS011;29398;45.328;5.558;2023-03-23T00:38:25;3.97;;;2.40;;
7737;SDS011;29398;45.328;5.558;2023-03-23T00:39:27;2.38;;;2.17;;
7737;SDS011;29398;45.328;5.558;2023-03-23T00:40:29;2.72;;;2.28;;
7737;SDS011;29398;45.328;5.558;2023-03-23T00:41:31;3.95;;;2.63;;
7737;SDS011;29398;45.328;5.558;2023-03-23T00:42:36;2.72;;;2.30;;
7737;SDS011;29398;45.328;5.558;2023-03-23T00:43:38;3.67;;;2.10;;
7737;SDS011;29398;45.328;5.558;2023-03-23T00:44:41;4.05;;;2.25;;
7737;SDS011;29398;45.328;5.558;2023-03-23T00:45:44;4.05;;;2.72;;
7737;SDS011;29398;45.328;5.558;2023-03-23T00:46:52;2.15;;;1.92;;
7737;SDS011;29398;45.328;5.558;2023-03-23T00:47:56;3.00;;;2.53;;
7737;SDS011;29398;45.328;5.558;2023-03-23T00:49:04;2.67;;;2.30;;
7737;SDS011;29398;45.328;5.558;2023-03-23T00:50:07;2.75;;;2.30;;
7737;SDS011;29398;45.328;5.558;2023-03-23T00:51:10;3.45;;;2.45;;
7737;SDS011;29398;45.328;5.558;2023-03-23T00:52:12;3.65;;;2.30;;
7737;SDS011;29398;45.328;5.558;2023-03-23T00:53:14;2.70;;;2.28;;
7737;SDS011;29398;45.328;5.558;2023-03-23T00:54:15;4.78;;;2.42;;
7737;SDS011;29398;45.328;5.558;2023-03-23T00:55:17;2.88;;;2.40;;
7737;SDS011;29398;45.328;5.558;2023-03-23T00:56:18;4.10;;;2.40;;
7737;SDS011;29398;45.328;5.558;2023-03-23T00:57:20;5.28;;;2.45;;
7737;SDS011;29398;45.328;5.558;2023-03-23T00:58:24;2.97;;;2.63;;
7737;SDS011;29398;45.328;5.558;2023-03-23T00:59:26;3.25;;;2.40;;
7737;SDS011;29398;45.328;5.558;2023-03-23T01:00:29;5.00;;;2.60;;
7737;SDS011;29398;45.328;5.558;2023-03-23T01:01:31;3.20;;;2.38;;
7737;SDS011;29398;45.328;5.558;2023-03-23T01:02:33;4.72;;;2.50;;
7737;SDS011;29398;45.328;5.558;2023-03-23T01:03:38;3.72;;;2.45;;
7737;SDS011;29398;45.328;5.558;2023-03-23T01:04:39;3.08;;;2.78;;
7737;SDS011;29398;45.328;5.558;2023-03-23T01:05:45;3.40;;;2.67;;
7737;SDS011;29398;45.328;5.558;2023-03-23T01:06:48;3.88;;;2.78;;
7737;SDS011;29398;45.328;5.558;2023-03-23T01:07:52;3.20;;;2.38;;
7737;SDS011;29398;45.328;5.558;2023-03-23T01:08:53;2.92;;;2.40;;
7737;SDS011;29398;45.328;5.558;2023-03-23T01:09:58;3.53;;;2.35;;
7737;SDS011;29398;45.328;5.558;2023-03-23T01:11:03;2.88;;;2.42;;
7737;SDS011;29398;45.328;5.558;2023-03-23T01:12:07;2.75;;;2.40;;
7737;SDS011;29398;45.328;5.558;2023-03-23T01:13:08;2.42;;;2.22;;
7737;SDS011;29398;45.328;5.558;2023-03-23T01:14:10;3.75;;;2.25;;
7737;SDS011;29398;45.328;5.558;2023-03-23T01:15:13;3.00;;;2.25;;
7737;SDS011;29398;45.328;5.558;2023-03-23T01:16:18;4.38;;;2.47;;
7737;SDS011;29398;45.328;5.558;2023-03-23T01:17:19;2.83;;;2.22;;
7737;SDS011;29398;45.328;5.558;2023-03-23T01:18:21;3.42;;;2.50;;
7737;SDS011;29398;45.328;5.558;2023-03-23T01:19:22;3.42;;;2.28;;
7737;SDS011;29398;45.328;5.558;2023-03-23T01:20:25;2.80;;;2.30;;
7737;SDS011;29398;45.328;5.558;2023-03-23T01:21:27;2.72;;;2.25;;
7737;SDS011;29398;45.328;5.558;2023-03-23T01:22:31;2.85;;;2.42;;
7737;SDS011;29398;45.328;5.558;2023-03-23T01:23:33;3.30;;;2.58;;
7737;SDS011;29398;45.328;5.558;2023-03-23T01:24:35;2.65;;;2.45;;
7737;SDS011;29398;45.328;5.558;2023-03-23T01:25:37;2.60;;;2.40;;
7737;SDS011;29398;45.328;5.558;2023-03-23T01:26:39;3.25;;;2.50;;
7737;SDS011;29398;45.328;5.558;2023-03-23T01:27:40;2.63;;;2.10;;
7737;SDS011;29398;45.328;5.558;2023-03-23T01:28:42;2.78;;;2.35;;
7737;SDS011;29398;45.328;5.558;2023-03-23T01:29:43;2.33;;;2.10;;
7737;SDS011;29398;45.328;5.558;2023-03-23T01:30:46;3.45;;;2.20;;
7737;SDS011;29398;45.328;5.558;2023-03-23T01:31:48;4.03;;;2.40;;
7737;SDS011;29398;45.328;5.558;2023-03-23T01:32:50;5.53;;;2.65;;
7737;SDS011;29398;45.328;5.558;2023-03-23T01:33:52;3.25;;;2.10;;
7737;SDS011;29398;45.328;5.558;2023-03-23T01:34:56;2.88;;;2.33;;
7737;SDS011;29398;45.328;5.558;2023-03-23T01:36:02;3.80;;;2.50;;
7737;SDS011;29398;45.328;5.558;2023-03-23T01:37:05;2.53;;;2.15;;
7737;SDS011;29398;45.328;5.558;2023-03-23T01:38:06;4.25;;;2.38;;
7737;SDS011;29398;45.328;5.558;2023-03-23T01:39:09;3.58;;;2.20;;
7737;SDS011;29398;45.328;5.558;2023-03-23T01:40:10;5.00;;;2.78;;
7737;SDS011;29398;45.328;5.558;2023-03-23T01:41:13;3.33;;;2.20;;
7737;SDS011;29398;45.328;5.558;2023-03-23T01:42:15;2.90;;;2.25;;
7737;SDS011;29398;45.328;5.558;2023-03-23T01:43:18;3.03;;;1.90;;
7737;SDS011;29398;45.328;5.558;2023-03-23T01:45:58;3.35;;;2.15;;
7737;SDS011;29398;45.328;5.558;2023-03-23T01:47:01;2.83;;;2.17;;
7737;SDS011;29398;45.328;5.558;2023-03-23T01:48:13;4.53;;;2.22;;
7737;SDS011;29398;45.328;5.558;2023-03-23T01:49:19;3.08;;;2.30;;
7737;SDS011;29398;45.328;5.558;2023-03-23T01:50:25;3.25;;;2.10;;
7737;SDS011;29398;45.328;5.558;2023-03-23T01:51:29;3.47;;;2.30;;
7737;SDS011;29398;45.328;5.558;2023-03-23T01:52:31;3.45;;;2.28;;
7737;SDS011;29398;45.328;5.558;2023-03-23T01:53:36;3.30;;;2.75;;
7737;SDS011;29398;45.328;5.558;2023-03-23T01:54:40;3.25;;;2.25;;
7737;SDS011;29398;45.328;5.558;2023-03-23T01:55:45;3.95;;;2.35;;
7737;SDS011;29398;45.328;5.558;2023-03-23T01:56:52;3.30;;;2.25;;
7737;SDS011;29398;45.328;5.558;2023-03-23T01:57:57;3.60;;;2.05;;
7737;SDS011;29398;45.328;5.558;2023-03-23T01:58:59;2.65;;;2.20;;
7737;SDS011;29398;45.328;5.558;2023-03-23T02:00:03;3.40;;;2.13;;
7737;SDS011;29398;45.328;5.558;2023-03-23T02:01:14;4.78;;;2.65;;
7737;SDS011;29398;45.328;5.558;2023-03-23T02:02:18;4.47;;;2.40;;
7737;SDS011;29398;45.328;5.558;2023-03-23T02:03:24;2.65;;;2.17;;
7737;SDS011;29398;45.328;5.558;2023-03-23T02:04:25;3.63;;;2.50;;
7737;SDS011;29398;45.328;5.558;2023-03-23T02:05:29;2.60;;;2.17;;
7737;SDS011;29398;45.328;5.558;2023-03-23T02:06:38;3.08;;;2.45;;
7737;SDS011;29398;45.328;5.558;2023-03-23T02:07:47;4.80;;;2.28;;
7737;SDS011;29398;45.328;5.558;2023-03-23T02:08:49;3.13;;;2.28;;
7737;SDS011;29398;45.328;5.558;2023-03-23T02:09:53;2.72;;;2.20;;
7737;SDS011;29398;45.328;5.558;2023-03-23T02:10:54;5.28;;;2.60;;
7737;SDS011;29398;45.328;5.558;2023-03-23T02:11:57;4.35;;;2.83;;
7737;SDS011;29398;45.328;5.558;2023-03-23T02:12:58;4.93;;;3.33;;
7737;SDS011;29398;45.328;5.558;2023-03-23T02:14:02;3.83;;;3.42;;
7737;SDS011;29398;45.328;5.558;2023-03-23T02:15:04;3.45;;;2.60;;
7737;SDS011;29398;45.328;5.558;2023-03-23T02:16:09;3.60;;;2.35;;
7737;SDS011;29398;45.328;5.558;2023-03-23T02:17:22;4.45;;;3.03;;
7737;SDS011;29398;45.328;5.558;2023-03-23T02:18:37;6.03;;;2.58;;
7737;SDS011;29398;45.328;5.558;2023-03-23T02:20:01;5.25;;;2.78;;
7737;SDS011;29398;45.328;5.558;2023-03-23T02:22:50;2.53;;;2.15;;
7737;SDS011;29398;45.328;5.558;2023-03-23T02:24:30;3.97;;;2.30;;
7737;SDS011;29398;45.328;5.558;2023-03-23T02:25:52;4.55;;;2.65;;
7737;SDS011;29398;45.328;5.558;2023-03-23T02:27:01;5.90;;;2.53;;
7737;SDS011;29398;45.328;5.558;2023-03-23T02:29:48;4.45;;;2.13;;
7737;SDS011;29398;45.328;5.558;2023-03-23T02:31:05;4.00;;;2.80;;
7737;SDS011;29398;45.328;5.558;2023-03-23T02:32:23;3.47;;;2.50;;
7737;SDS011;29398;45.328;5.558;2023-03-23T02:33:45;3.95;;;2.75;;
7737;SDS011;29398;45.328;5.558;2023-03-23T02:34:52;7.35;;;2.75;;
7737;SDS011;29398;45.328;5.558;2023-03-23T02:35:57;3.00;;;2.60;;
7737;SDS011;29398;45.328;5.558;2023-03-23T02:37:03;4.70;;;2.72;;
7737;SDS011;29398;45.328;5.558;2023-03-23T02:38:11;5.90;;;2.78;;
7737;SDS011;29398;45.328;5.558;2023-03-23T02:39:17;5.13;;;2.55;;
7737;SDS011;29398;45.328;5.558;2023-03-23T02:40:24;2.50;;;2.30;;
7737;SDS011;29398;45.328;5.558;2023-03-23T02:41:31;5.82;;;2.58;;
7737;SDS011;29398;45.328;5.558;2023-03-23T02:42:38;4.45;;;2.70;;
7737;SDS011;29398;45.328;5.558;2023-03-23T02:43:43;4.75;;;3.03;;
7737;SDS011;29398;45.328;5.558;2023-03-23T02:44:47;3.70;;;2.50;;
7737;SDS011;29398;45.328;5.558;2023-03-23T02:45:50;3.92;;;2.40;;
7737;SDS011;29398;45.328;5.558;2023-03-23T02:46:55;3.33;;;2.40;;
7737;SDS011;29398;45.328;5.558;2023-03-23T02:47:58;3.05;;;2.63;;
7737;SDS011;29398;45.328;5.558;2023-03-23T02:49:02;2.67;;;2.38;;
7737;SDS011;29398;45.328;5.558;2023-03-23T02:50:07;4.28;;;2.75;;
7737;SDS011;29398;45.328;5.558;2023-03-23T02:51:13;4.25;;;2.85;;
7737;SDS011;29398;45.328;5.558;2023-03-23T02:52:17;3.72;;;3.08;;
7737;SDS011;29398;45.328;5.558;2023-03-23T02:53:24;5.78;;;3.00;;
7737;SDS011;29398;45.328;5.558;2023-03-23T02:54:26;3.58;;;2.95;;
7737;SDS011;29398;45.328;5.558;2023-03-23T02:55:30;5.20;;;3.38;;
7737;SDS011;29398;45.328;5.558;2023-03-23T02:56:37;4.22;;;3.20;;
7737;SDS011;29398;45.328;5.558;2023-03-23T02:57:50;3.60;;;2.70;;
7737;SDS011;29398;45.328;5.558;2023-03-23T02:58:53;4.03;;;2.90;;
7737;SDS011;29398;45.328;5.558;2023-03-23T02:59:55;6.15;;;3.00;;
7737;SDS011;29398;45.328;5.558;2023-03-23T03:00:56;5.28;;;2.80;;
7737;SDS011;29398;45.328;5.558;2023-03-23T03:02:04;5.43;;;2.92;;
7737;SDS011;29398;45.328;5.558;2023-03-23T03:03:09;4.43;;;2.75;;
7737;SDS011;29398;45.328;5.558;2023-03-23T03:04:16;4.88;;;2.85;;
7737;SDS011;29398;45.328;5.558;2023-03-23T03:05:22;4.13;;;3.00;;
7737;SDS011;29398;45.328;5.558;2023-03-23T03:06:37;3.60;;;2.80;;
7737;SDS011;29398;45.328;5.558;2023-03-23T03:07:50;3.08;;;2.75;;
7737;SDS011;29398;45.328;5.558;2023-03-23T03:09:04;2.80;;;2.50;;
7737;SDS011;29398;45.328;5.558;2023-03-23T03:10:13;3.63;;;2.60;;
7737;SDS011;29398;45.328;5.558;2023-03-23T03:11:20;4.70;;;2.67;;
7737;SDS011;29398;45.328;5.558;2023-03-23T03:12:30;3.75;;;2.70;;
7737;SDS011;29398;45.328;5.558;2023-03-23T03:13:38;4.47;;;2.53;;
7737;SDS011;29398;45.328;5.558;2023-03-23T03:14:49;4.25;;;2.80;;
7737;SDS011;29398;45.328;5.558;2023-03-23T03:15:58;2.88;;;2.60;;
7737;SDS011;29398;45.328;5.558;2023-03-23T03:17:06;3.80;;;2.83;;
7737;SDS011;29398;45.328;5.558;2023-03-23T03:18:15;3.17;;;2.63;;
7737;SDS011;29398;45.328;5.558;2023-03-23T03:19:22;4.30;;;3.00;;
7737;SDS011;29398;45.328;5.558;2023-03-23T03:20:28;3.55;;;2.75;;
7737;SDS011;29398;45.328;5.558;2023-03-23T03:21:33;4.80;;;3.17;;
7737;SDS011;29398;45.328;5.558;2023-03-23T03:22:38;3.45;;;2.70;;
7737;SDS011;29398;45.328;5.558;2023-03-23T03:23:43;4.60;;;3.00;;
7737;SDS011;29398;45.328;5.558;2023-03-23T03:24:49;4.90;;;3.35;;
7737;SDS011;29398;45.328;5.558;2023-03-23T03:25:52;4.47;;;3.13;;
7737;SDS011;29398;45.328;5.558;2023-03-23T03:27:09;3.95;;;2.80;;
7737;SDS011;29398;45.328;5.558;2023-03-23T03:28:19;5.15;;;3.00;;
7737;SDS011;29398;45.328;5.558;2023-03-23T03:29:25;3.72;;;3.20;;
7737;SDS011;29398;45.328;5.558;2023-03-23T03:30:31;3.13;;;2.70;;
7737;SDS011;29398;45.328;5.558;2023-03-23T03:31:37;3.10;;;2.72;;
7737;SDS011;29398;45.328;5.558;2023-03-23T03:32:46;3.78;;;2.75;;
7737;SDS011;29398;45.328;5.558;2023-03-23T03:33:51;3.90;;;3.10;;
7737;SDS011;29398;45.328;5.558;2023-03-23T03:34:54;6.43;;;2.65;;
7737;SDS011;29398;45.328;5.558;2023-03-23T03:35:57;3.53;;;2.90;;
7737;SDS011;29398;45.328;5.558;2023-03-23T03:37:00;3.03;;;2.40;;
7737;SDS011;29398;45.328;5.558;2023-03-23T03:38:06;4.20;;;3.08;;
7737;SDS011;29398;45.328;5.558;2023-03-23T03:39:09;2.90;;;2.60;;
7737;SDS011;29398;45.328;5.558;2023-03-23T03:40:13;3.85;;;2.53;;
7737;SDS011;29398;45.328;5.558;2023-03-23T03:41:17;3.75;;;2.75;;
7737;SDS011;29398;45.328;5.558;2023-03-23T03:42:21;3.30;;;2.55;;
7737;SDS011;29398;45.328;5.558;2023-03-23T03:43:25;3.40;;;2.75;;
7737;SDS011;29398;45.328;5.558;2023-03-23T03:44:27;5.55;;;2.92;;
7737;SDS011;29398;45.328;5.558;2023-03-23T03:45:30;4.28;;;2.85;;
7737;SDS011;29398;45.328;5.558;2023-03-23T03:46:32;4.43;;;2.63;;
7737;SDS011;29398;45.328;5.558;2023-03-23T03:47:34;5.93;;;2.83;;
7737;SDS011;29398;45.328;5.558;2023-03-23T03:48:36;3.00;;;2.70;;
7737;SDS011;29398;45.328;5.558;2023-03-23T03:49:38;2.90;;;2.60;;
7737;SDS011;29398;45.328;5.558;2023-03-23T03:50:42;3.45;;;2.50;;
7737;SDS011;29398;45.328;5.558;2023-03-23T03:51:44;3.55;;;2.80;;
7737;SDS011;29398;45.328;5.558;2023-03-23T03:52:53;4.17;;;3.10;;
7737;SDS011;29398;45.328;5.558;2023-03-23T03:53:54;3.28;;;2.95;;
7737;SDS011;29398;45.328;5.558;2023-03-23T03:54:56;5.38;;;3.03;;
7737;SDS011;29398;45.328;5.558;2023-03-23T03:55:58;3.17;;;2.45;;
7737;SDS011;29398;45.328;5.558;2023-03-23T03:57:06;3.40;;;2.70;;
7737;SDS011;29398;45.328;5.558;2023-03-23T03:58:27;4.60;;;2.90;;
7737;SDS011;29398;45.328;5.558;2023-03-23T03:59:52;3.50;;;3.10;;
7737;SDS011;29398;45.328;5.558;2023-03-23T04:00:53;3.05;;;2.83;;
7737;SDS011;29398;45.328;5.558;2023-03-23T04:01:59;4.43;;;3.13;;
7737;SDS011;29398;45.328;5.558;2023-03-23T04:03:01;4.20;;;3.40;;
7737;SDS011;29398;45.328;5.558;2023-03-23T04:04:23;3.95;;;2.95;;
7737;SDS011;29398;45.328;5.558;2023-03-23T04:05:25;4.07;;;2.60;;
7737;SDS011;29398;45.328;5.558;2023-03-23T04:06:30;3.17;;;2.60;;
7737;SDS011;29398;45.328;5.558;2023-03-23T04:07:33;3.78;;;2.83;;
7737;SDS011;29398;45.328;5.558;2023-03-23T04:08:34;4.35;;;2.70;;
7737;SDS011;29398;45.328;5.558;2023-03-23T04:09:38;3.53;;;2.63;;
7737;SDS011;29398;45.328;5.558;2023-03-23T04:10:40;4.15;;;2.95;;
7737;SDS011;29398;45.328;5.558;2023-03-23T04:11:42;4.20;;;2.60;;
7737;SDS011;29398;45.328;5.558;2023-03-23T04:13:16;5.63;;;2.60;;
7737;SDS011;29398;45.328;5.558;2023-03-23T04:14:37;3.97;;;2.53;;
7737;SDS011;29398;45.328;5.558;2023-03-23T04:15:38;8.68;;;3.08;;
7737;SDS011;29398;45.328;5.558;2023-03-23T04:16:40;3.00;;;2.47;;
7737;SDS011;29398;45.328;5.558;2023-03-23T04:17:41;4.47;;;2.80;;
7737;SDS011;29398;45.328;5.558;2023-03-23T04:18:44;4.80;;;2.80;;
7737;SDS011;29398;45.328;5.558;2023-03-23T04:19:48;3.92;;;2.92;;
7737;SDS011;29398;45.328;5.558;2023-03-23T04:20:50;6.00;;;3.53;;
7737;SDS011;29398;45.328;5.558;2023-03-23T04:21:55;6.35;;;2.83;;
7737;SDS011;29398;45.328;5.558;2023-03-23T04:22:59;5.25;;;2.97;;
7737;SDS011;29398;45.328;5.558;2023-03-23T04:24:01;4.38;;;2.90;;
7737;SDS011;29398;45.328;5.558;2023-03-23T04:25:04;3.88;;;2.70;;
7737;SDS011;29398;45.328;5.558;2023-03-23T04:26:10;5.72;;;3.10;;
7737;SDS011;29398;45.328;5.558;2023-03-23T04:27:15;5.38;;;2.72;;
7737;SDS011;29398;45.328;5.558;2023-03-23T04:28:17;4.70;;;3.13;;
7737;SDS011;29398;45.328;5.558;2023-03-23T04:29:52;4.57;;;3.00;;
7737;SDS011;29398;45.328;5.558;2023-03-23T04:31:33;8.05;;;3.03;;
7737;SDS011;29398;45.328;5.558;2023-03-23T04:32:45;4.13;;;2.90;;
7737;SDS011;29398;45.328;5.558;2023-03-23T04:33:53;5.28;;;2.97;;
7737;SDS011;29398;45.328;5.558;2023-03-23T04:34:59;3.28;;;2.75;;
7737;SDS011;29398;45.328;5.558;2023-03-23T04:36:07;4.05;;;2.97;;
7737;SDS011;29398;45.328;5.558;2023-03-23T04:37:14;4.63;;;2.70;;
7737;SDS011;29398;45.328;5.558;2023-03-23T04:38:16;6.15;;;3.00;;
7737;SDS011;29398;45.328;5.558;2023-03-23T04:39:22;6.53;;;3.40;;
7737;SDS011;29398;45.328;5.558;2023-03-23T04:40:26;5.28;;;2.72;;
7737;SDS011;29398;45.328;5.558;2023-03-23T04:41:40;6.13;;;3.00;;
7737;SDS011;29398;45.328;5.558;2023-03-23T04:43:05;3.20;;;2.90;;
7737;SDS011;29398;45.328;5.558;2023-03-23T04:44:20;4.18;;;3.10;;
7737;SDS011;29398;45.328;5.558;2023-03-23T04:45:30;4.85;;;2.85;;
7737;SDS011;29398;45.328;5.558;2023-03-23T04:46:35;4.85;;;3.25;;
7737;SDS011;29398;45.328;5.558;2023-03-23T04:47:42;6.15;;;3.08;;
7737;SDS011;29398;45.328;5.558;2023-03-23T04:48:55;4.45;;;3.00;;
7737;SDS011;29398;45.328;5.558;2023-03-23T04:50:03;3.70;;;2.58;;
7737;SDS011;29398;45.328;5.558;2023-03-23T04:51:10;4.68;;;2.78;;
7737;SDS011;29398;45.328;5.558;2023-03-23T04:52:14;4.72;;;3.10;;
7737;SDS011;29398;45.328;5.558;2023-03-23T04:53:19;4.22;;;3.15;;
7737;SDS011;29398;45.328;5.558;2023-03-23T04:54:21;4.78;;;2.97;;
7737;SDS011;29398;45.328;5.558;2023-03-23T04:55:27;5.05;;;3.00;;
7737;SDS011;29398;45.328;5.558;2023-03-23T04:56:31;5.75;;;3.25;;
7737;SDS011;29398;45.328;5.558;2023-03-23T04:57:40;6.72;;;4.07;;
7737;SDS011;29398;45.328;5.558;2023-03-23T04:59:00;6.10;;;2.97;;
7737;SDS011;29398;45.328;5.558;2023-03-23T05:00:28;3.97;;;2.83;;
7737;SDS011;29398;45.328;5.558;2023-03-23T05:01:31;5.45;;;2.88;;
7737;SDS011;29398;45.328;5.558;2023-03-23T05:02:48;6.00;;;2.97;;
7737;SDS011;29398;45.328;5.558;2023-03-23T05:03:54;6.43;;;3.75;;
7737;SDS011;29398;45.328;5.558;2023-03-23T05:04:57;6.68;;;3.78;;
7737;SDS011;29398;45.328;5.558;2023-03-23T05:06:01;5.20;;;3.22;;
7737;SDS011;29398;45.328;5.558;2023-03-23T05:07:03;4.60;;;2.97;;
7737;SDS011;29398;45.328;5.558;2023-03-23T05:08:11;3.42;;;2.95;;
7737;SDS011;29398;45.328;5.558;2023-03-23T05:09:15;7.82;;;4.05;;
7737;SDS011;29398;45.328;5.558;2023-03-23T05:10:17;6.07;;;3.35;;
7737;SDS011;29398;45.328;5.558;2023-03-23T05:11:19;4.68;;;3.20;;
7737;SDS011;29398;45.328;5.558;2023-03-23T05:12:21;4.32;;;3.42;;
7737;SDS011;29398;45.328;5.558;2023-03-23T05:13:27;4.88;;;3.30;;
7737;SDS011;29398;45.328;5.558;2023-03-23T05:14:32;5.78;;;3.63;;
7737;SDS011;29398;45.328;5.558;2023-03-23T05:15:40;4.43;;;3.22;;
7737;SDS011;29398;45.328;5.558;2023-03-23T05:16:42;5.50;;;3.28;;
7737;SDS011;29398;45.328;5.558;2023-03-23T05:17:50;5.78;;;3.38;;
7737;SDS011;29398;45.328;5.558;2023-03-23T05:18:54;5.88;;;3.55;;
7737;SDS011;29398;45.328;5.558;2023-03-23T05:19:57;5.03;;;3.05;;
7737;SDS011;29398;45.328;5.558;2023-03-23T05:21:19;3.78;;;3.08;;
7737;SDS011;29398;45.328;5.558;2023-03-23T05:22:26;3.75;;;2.92;;
7737;SDS011;29398;45.328;5.558;2023-03-23T05:23:29;4.43;;;3.13;;
7737;SDS011;29398;45.328;5.558;2023-03-23T05:24:40;5.00;;;3.42;;
7737;SDS011;29398;45.328;5.558;2023-03-23T05:25:44;3.90;;;3.50;;
7737;SDS011;29398;45.328;5.558;2023-03-23T05:26:51;5.07;;;3.60;;
7737;SDS011;29398;45.328;5.558;2023-03-23T05:27:58;5.53;;;3.40;;
7737;SDS011;29398;45.328;5.558;2023-03-23T05:29:17;4.53;;;2.88;;
7737;SDS011;29398;45.328;5.558;2023-03-23T05:30:29;5.28;;;3.25;;
7737;SDS011;29398;45.328;5.558;2023-03-23T05:31:33;4.78;;;2.97;;
7737;SDS011;29398;45.328;5.558;2023-03-23T05:32:35;3.50;;;3.20;;
7737;SDS011;29398;45.328;5.558;2023-03-23T05:33:53;5.05;;;3.28;;
7737;SDS011;29398;45.328;5.558;2023-03-23T05:35:15;3.85;;;3.42;;
7737;SDS011;29398;45.328;5.558;2023-03-23T05:36:18;5.05;;;3.13;;
7737;SDS011;29398;45.328;5.558;2023-03-23T05:37:38;5.65;;;2.88;;
7737;SDS011;29398;45.328;5.558;2023-03-23T05:38:44;7.10;;;3.47;;
7737;SDS011;29398;45.328;5.558;2023-03-23T05:39:48;4.45;;;2.97;;
7737;SDS011;29398;45.328;5.558;2023-03-23T05:41:02;4.75;;;3.00;;
7737;SDS011;29398;45.328;5.558;2023-03-23T05:42:12;4.38;;;3.08;;
7737;SDS011;29398;45.328;5.558;2023-03-23T05:43:23;5.43;;;3.33;;
7737;SDS011;29398;45.328;5.558;2023-03-23T05:44:42;3.60;;;3.10;;
7737;SDS011;29398;45.328;5.558;2023-03-23T05:45:46;5.15;;;3.40;;
7737;SDS011;29398;45.328;5.558;2023-03-23T05:46:47;5.78;;;3.63;;
7737;SDS011;29398;45.328;5.558;2023-03-23T05:47:51;5.10;;;3.25;;
7737;SDS011;29398;45.328;5.558;2023-03-23T05:48:55;6.75;;;3.38;;
7737;SDS011;29398;45.328;5.558;2023-03-23T05:50:02;5.93;;;3.47;;
7737;SDS011;29398;45.328;5.558;2023-03-23T05:51:06;4.38;;;3.17;;
7737;SDS011;29398;45.328;5.558;2023-03-23T05:52:12;4.55;;;3.13;;
7737;SDS011;29398;45.328;5.558;2023-03-23T05:53:14;3.55;;;3.00;;
7737;SDS011;29398;45.328;5.558;2023-03-23T05:54:18;4.28;;;3.35;;
7737;SDS011;29398;45.328;5.558;2023-03-23T05:55:22;5.03;;;3.13;;
7737;SDS011;29398;45.328;5.558;2023-03-23T05:58:10;4.00;;;3.00;;
7737;SDS011;29398;45.328;5.558;2023-03-23T05:59:16;5.03;;;3.42;;
7737;SDS011;29398;45.328;5.558;2023-03-23T06:00:21;6.35;;;3.17;;
7737;SDS011;29398;45.328;5.558;2023-03-23T06:01:30;4.22;;;2.95;;
7737;SDS011;29398;45.328;5.558;2023-03-23T06:02:34;4.22;;;3.13;;
7737;SDS011;29398;45.328;5.558;2023-03-23T06:03:36;4.95;;;2.97;;
7737;SDS011;29398;45.328;5.558;2023-03-23T06:04:47;2.78;;;2.58;;
7737;SDS011;29398;45.328;5.558;2023-03-23T06:05:56;3.13;;;2.67;;
7737;SDS011;29398;45.328;5.558;2023-03-23T06:07:05;4.10;;;2.97;;
7737;SDS011;29398;45.328;5.558;2023-03-23T06:08:07;4.55;;;3.00;;
7737;SDS011;29398;45.328;5.558;2023-03-23T06:09:09;3.80;;;2.53;;
7737;SDS011;29398;45.328;5.558;2023-03-23T06:10:31;4.40;;;2.80;;
7737;SDS011;29398;45.328;5.558;2023-03-23T06:11:36;4.75;;;2.60;;
7737;SDS011;29398;45.328;5.558;2023-03-23T06:12:59;4.20;;;2.92;;
7737;SDS011;29398;45.328;5.558;2023-03-23T06:14:06;4.30;;;2.60;;
7737;SDS011;29398;45.328;5.558;2023-03-23T06:15:08;4.38;;;3.47;;
7737;SDS011;29398;45.328;5.558;2023-03-23T06:16:40;4.35;;;3.05;;
7737;SDS011;29398;45.328;5.558;2023-03-23T06:17:45;3.58;;;2.70;;
7737;SDS011;29398;45.328;5.558;2023-03-23T06:18:47;3.50;;;3.00;;
7737;SDS011;29398;45.328;5.558;2023-03-23T06:20:06;7.60;;;3.10;;
7737;SDS011;29398;45.328;5.558;2023-03-23T06:21:10;3.90;;;2.38;;
7737;SDS011;29398;45.328;5.558;2023-03-23T06:22:27;4.93;;;2.92;;
7737;SDS011;29398;45.328;5.558;2023-03-23T06:23:29;4.90;;;2.47;;
7737;SDS011;29398;45.328;5.558;2023-03-23T06:24:31;4.38;;;2.97;;
7737;SDS011;29398;45.328;5.558;2023-03-23T06:25:36;4.40;;;2.45;;
7737;SDS011;29398;45.328;5.558;2023-03-23T06:26:38;4.20;;;2.83;;
7737;SDS011;29398;45.328;5.558;2023-03-23T06:27:45;3.88;;;2.65;;
7737;SDS011;29398;45.328;5.558;2023-03-23T06:28:47;5.20;;;2.70;;
7737;SDS011;29398;45.328;5.558;2023-03-23T06:29:50;2.47;;;2.28;;
7737;SDS011;29398;45.328;5.558;2023-03-23T06:30:51;3.28;;;2.72;;
7737;SDS011;29398;45.328;5.558;2023-03-23T06:31:55;3.30;;;2.83;;
7737;SDS011;29398;45.328;5.558;2023-03-23T06:33:00;4.38;;;2.42;;
7737;SDS011;29398;45.328;5.558;2023-03-23T06:34:41;5.80;;;3.10;;
7737;SDS011;29398;45.328;5.558;2023-03-23T06:36:05;4.03;;;2.88;;
7737;SDS011;29398;45.328;5.558;2023-03-23T06:37:21;4.28;;;3.03;;
7737;SDS011;29398;45.328;5.558;2023-03-23T06:38:44;4.50;;;2.67;;
7737;SDS011;29398;45.328;5.558;2023-03-23T06:39:50;4.97;;;2.95;;
7737;SDS011;29398;45.328;5.558;2023-03-23T06:41:01;7.87;;;2.90;;
7737;SDS011;29398;45.328;5.558;2023-03-23T06:42:04;4.13;;;2.80;;
7737;SDS011;29398;45.328;5.558;2023-03-23T06:43:14;9.10;;;3.05;;
7737;SDS011;29398;45.328;5.558;2023-03-23T06:44:42;4.22;;;2.65;;
7737;SDS011;29398;45.328;5.558;2023-03-23T06:45:46;4.90;;;2.80;;
7737;SDS011;29398;45.328;5.558;2023-03-23T06:47:06;6.25;;;2.53;;
7737;SDS011;29398;45.328;5.558;2023-03-23T06:48:12;3.15;;;2.50;;
7737;SDS011;29398;45.328;5.558;2023-03-23T06:49:14;3.20;;;2.67;;
7737;SDS011;29398;45.328;5.558;2023-03-23T06:50:23;2.65;;;2.20;;
7737;SDS011;29398;45.328;5.558;2023-03-23T06:51:25;4.45;;;2.63;;
7737;SDS011;29398;45.328;5.558;2023-03-23T06:52:29;5.00;;;2.30;;